createdAt,value
2023-02-21T00:00:25.661Z,1008.80
2023-02-21T00:01:25.648Z,1008.74
2023-02-21T00:02:25.722Z,1008.68
2023-02-21T00:03:25.641Z,1008.85
2023-02-21T00:04:25.831Z,1008.81
2023-02-21T00:05:25.806Z,1008.88
2023-02-21T00:06:25.582Z,1008.86
2023-02-21T00:07:25.632Z,1008.84
2023-02-21T00:08:26.349Z,1008.76
2023-02-21T00:09:26.141Z,1008.84
2023-02-21T00:10:25.569Z,1008.86
2023-02-21T00:11:25.561Z,1008.87
2023-02-21T00:12:25.884Z,1008.86
2023-02-21T00:13:26.418Z,1008.80
2023-02-21T00:14:25.495Z,1008.96
2023-02-21T00:15:26.924Z,1008.82
2023-02-21T00:16:25.480Z,1008.87
2023-02-21T00:17:26.512Z,1008.82
2023-02-21T00:18:26.398Z,1008.84
2023-02-21T00:19:25.467Z,1008.86
2023-02-21T00:20:25.440Z,1008.89
2023-02-21T00:21:25.482Z,1008.81
2023-02-21T00:22:25.467Z,1008.82
2023-02-21T00:23:25.385Z,1008.83
2023-02-21T00:24:25.499Z,1008.92
2023-02-21T00:25:26.253Z,1008.85
2023-02-21T00:26:26.185Z,1008.84
2023-02-21T00:27:25.604Z,1008.85
2023-02-21T00:28:25.641Z,1008.86
2023-02-21T00:29:26.057Z,1008.90
2023-02-21T00:30:25.442Z,1008.85
2023-02-21T00:31:26.216Z,1008.89
2023-02-21T00:32:26.101Z,1008.89
2023-02-21T00:33:25.506Z,1008.97
2023-02-21T00:34:26.216Z,1008.91
2023-02-21T00:35:25.289Z,1008.89
2023-02-21T00:36:25.241Z,1008.89
2023-02-21T00:37:25.216Z,1008.95
2023-02-21T00:38:26.601Z,1009.00
2023-02-21T00:39:25.166Z,1008.96
2023-02-21T00:40:26.357Z,1009.04
2023-02-21T00:41:25.686Z,1009.22
2023-02-21T00:42:25.144Z,1009.28
2023-02-21T00:43:26.068Z,1009.05
2023-02-21T00:44:25.126Z,1009.01
2023-02-21T00:45:25.089Z,1009.07
2023-02-21T00:46:25.164Z,1009.08
2023-02-21T00:47:26.204Z,1009.21
2023-02-21T00:48:25.081Z,1009.04
2023-02-21T00:49:25.095Z,1009.07
2023-02-21T00:50:26.073Z,1009.05
2023-02-21T00:51:25.137Z,1008.99
2023-02-21T00:52:25.083Z,1009.01
2023-02-21T00:53:25.013Z,1009.05
2023-02-21T00:54:25.017Z,1008.95
2023-02-21T00:55:25.045Z,1009.00
2023-02-21T00:56:25.055Z,1008.95
2023-02-21T00:57:24.934Z,1008.97
2023-02-21T00:58:24.926Z,1008.97
2023-02-21T00:59:24.935Z,1008.97
2023-02-21T01:00:25.098Z,1008.90
2023-02-21T01:01:24.925Z,1008.95
2023-02-21T01:02:24.868Z,1008.99
2023-02-21T01:03:24.878Z,1008.93
2023-02-21T01:04:25.079Z,1008.94
2023-02-21T01:05:24.959Z,1008.90
2023-02-21T01:06:25.902Z,1008.96
2023-02-21T01:07:24.850Z,1008.95
2023-02-21T01:08:24.845Z,1009.00
2023-02-21T01:09:24.849Z,1008.99
2023-02-21T01:10:24.816Z,1009.01
2023-02-21T01:11:24.841Z,1008.92
2023-02-21T01:12:24.733Z,1009.00
2023-02-21T01:13:24.786Z,1009.03
2023-02-21T01:14:26.783Z,1009.15
2023-02-21T01:15:24.778Z,1009.09
2023-02-21T01:16:25.974Z,1009.08
2023-02-21T01:17:24.830Z,1009.05
2023-02-21T01:18:24.683Z,1009.03
2023-02-21T01:19:24.729Z,1009.03
2023-02-21T01:20:24.664Z,1009.08
2023-02-21T01:21:24.909Z,1009.05
2023-02-21T01:22:25.128Z,1009.13
2023-02-21T01:23:24.671Z,1009.07
2023-02-21T01:24:24.614Z,1009.08
2023-02-21T01:25:25.160Z,1009.28
2023-02-21T01:26:24.623Z,1009.12
2023-02-21T01:27:24.628Z,1009.05
2023-02-21T01:28:24.591Z,1009.01
2023-02-21T01:29:24.937Z,1009.04
2023-02-21T01:30:24.548Z,1009.05
2023-02-21T01:31:24.786Z,1009.08
2023-02-21T01:32:24.606Z,1008.98
2023-02-21T01:33:24.479Z,1009.08
2023-02-21T01:34:25.268Z,1008.97
2023-02-21T01:35:24.475Z,1008.96
2023-02-21T01:36:24.474Z,1009.05
2023-02-21T01:37:24.614Z,1009.01
2023-02-21T01:38:24.587Z,1009.07
2023-02-21T01:39:25.316Z,1009.06
2023-02-21T01:40:24.401Z,1009.07
2023-02-21T01:41:25.377Z,1009.10
2023-02-21T01:42:25.528Z,1009.13
2023-02-21T01:43:24.393Z,1009.08
2023-02-21T01:44:24.350Z,1009.14
2023-02-21T01:45:24.367Z,1009.12
2023-02-21T01:46:24.506Z,1009.18
2023-02-21T01:47:25.554Z,1009.05
2023-02-21T01:48:24.376Z,1009.19
2023-02-21T01:49:25.359Z,1009.17
2023-02-21T01:50:25.233Z,1009.28
2023-02-21T01:51:24.284Z,1009.21
2023-02-21T01:52:24.364Z,1009.16
2023-02-21T01:53:24.987Z,1009.16
2023-02-21T01:54:25.395Z,1009.11
2023-02-21T01:55:24.246Z,1009.03
2023-02-21T01:56:24.204Z,1009.14
2023-02-21T01:57:24.319Z,1009.11
2023-02-21T01:58:24.163Z,1009.09
2023-02-21T01:59:24.177Z,1009.10
2023-02-21T02:00:24.137Z,1009.14
2023-02-21T02:01:24.158Z,1009.12
2023-02-21T02:02:24.143Z,1009.12
2023-02-21T02:03:24.127Z,1009.18
2023-02-21T02:04:24.435Z,1009.10
2023-02-21T02:05:24.102Z,1009.13
2023-02-21T02:06:24.060Z,1009.12
2023-02-21T02:07:25.177Z,1009.12
2023-02-21T02:08:24.095Z,1009.15
2023-02-21T02:09:24.024Z,1009.07
2023-02-21T02:10:24.047Z,1009.07
2023-02-21T02:11:24.005Z,1009.08
2023-02-21T02:12:24.302Z,1009.03
2023-02-21T02:13:23.987Z,1008.99
2023-02-21T02:14:23.974Z,1009.07
2023-02-21T02:15:23.989Z,1008.98
2023-02-21T02:16:23.970Z,1009.02
2023-02-21T02:17:23.999Z,1009.05
2023-02-21T02:18:23.904Z,1009.03
2023-02-21T02:19:23.952Z,1009.06
2023-02-21T02:20:24.266Z,1008.98
2023-02-21T02:21:23.918Z,1009.04
2023-02-21T02:22:23.891Z,1009.03
2023-02-21T02:23:23.847Z,1009.02
2023-02-21T02:24:23.907Z,1009.06
2023-02-21T02:25:23.850Z,1009.02
2023-02-21T02:26:23.884Z,1009.01
2023-02-21T02:27:23.830Z,1009.01
2023-02-21T02:28:23.802Z,1009.03
2023-02-21T02:29:23.842Z,1009.01
2023-02-21T02:30:23.857Z,1008.98
2023-02-21T02:31:23.856Z,1009.00
2023-02-21T02:32:23.761Z,1009.09
2023-02-21T02:33:23.731Z,1009.01
2023-02-21T02:34:23.711Z,1009.05
2023-02-21T02:35:23.706Z,1008.92
2023-02-21T02:36:24.115Z,1008.97
2023-02-21T02:37:23.778Z,1009.01
2023-02-21T02:38:24.000Z,1009.01
2023-02-21T02:39:23.685Z,1008.93
2023-02-21T02:40:23.650Z,1008.98
2023-02-21T02:41:23.627Z,1008.94
2023-02-21T02:42:24.594Z,1008.98
2023-02-21T02:43:23.615Z,1008.95
2023-02-21T02:44:23.606Z,1008.91
2023-02-21T02:45:23.806Z,1008.95
2023-02-21T02:46:23.935Z,1008.95
2023-02-21T02:47:23.574Z,1008.92
2023-02-21T02:48:23.629Z,1008.88
2023-02-21T02:49:23.558Z,1008.96
2023-02-21T02:50:23.643Z,1008.97
2023-02-21T02:51:24.530Z,1008.95
2023-02-21T02:52:23.505Z,1008.93
2023-02-21T02:53:23.498Z,1008.95
2023-02-21T02:54:24.239Z,1008.91
2023-02-21T02:55:23.464Z,1008.99
2023-02-21T02:56:23.466Z,1009.02
2023-02-21T02:57:23.801Z,1008.91
2023-02-21T02:58:23.463Z,1008.84
2023-02-21T02:59:23.402Z,1008.93
2023-02-21T03:00:23.392Z,1008.92
2023-02-21T03:01:23.458Z,1008.85
2023-02-21T03:02:23.350Z,1008.84
2023-02-21T03:03:24.034Z,1008.90
2023-02-21T03:04:23.401Z,1008.88
2023-02-21T03:05:23.310Z,1008.87
2023-02-21T03:06:23.298Z,1008.82
2023-02-21T03:07:24.527Z,1008.95
2023-02-21T03:08:23.274Z,1008.94
2023-02-21T03:09:23.289Z,1008.89
2023-02-21T03:10:23.269Z,1008.87
2023-02-21T03:11:23.315Z,1008.87
2023-02-21T03:12:23.241Z,1008.82
2023-02-21T03:13:23.232Z,1008.82
2023-02-21T03:14:23.286Z,1008.71
2023-02-21T03:15:23.434Z,1008.89
2023-02-21T03:16:23.220Z,1008.88
2023-02-21T03:17:23.188Z,1008.90
2023-02-21T03:18:23.154Z,1008.83
2023-02-21T03:19:23.212Z,1008.88
2023-02-21T03:20:23.194Z,1008.84
2023-02-21T03:21:23.152Z,1008.78
2023-02-21T03:22:23.135Z,1008.81
2023-02-21T03:23:23.126Z,1008.80
2023-02-21T03:24:23.135Z,1008.89
2023-02-21T03:25:23.127Z,1008.75
2023-02-21T03:26:23.096Z,1008.83
2023-02-21T03:27:23.178Z,1008.80
2023-02-21T03:28:23.104Z,1008.78
2023-02-21T03:29:23.247Z,1008.75
2023-02-21T03:30:23.085Z,1008.67
2023-02-21T03:31:23.044Z,1008.77
2023-02-21T03:32:23.080Z,1008.71
2023-02-21T03:33:23.005Z,1008.87
2023-02-21T03:34:23.015Z,1008.78
2023-02-21T03:35:22.939Z,1008.79
2023-02-21T03:36:22.927Z,1008.75
2023-02-21T03:37:22.918Z,1008.82
2023-02-21T03:38:22.908Z,1008.72
2023-02-21T03:39:22.969Z,1008.96
2023-02-21T03:40:22.877Z,1008.75
2023-02-21T03:41:23.832Z,1008.82
2023-02-21T03:42:22.859Z,1008.84
2023-02-21T03:43:22.851Z,1008.98
2023-02-21T03:44:22.857Z,1008.85
2023-02-21T03:45:22.883Z,1008.72
2023-02-21T03:46:22.856Z,1008.71
2023-02-21T03:47:22.770Z,1008.64
2023-02-21T03:48:31.540Z,1008.87
2023-02-21T03:49:24.746Z,1008.83
2023-02-21T03:50:22.842Z,1008.82
2023-02-21T03:51:22.837Z,1008.79
2023-02-21T03:52:22.737Z,1008.76
2023-02-21T03:53:22.772Z,1008.69
2023-02-21T03:54:22.779Z,1008.74
2023-02-21T03:55:22.689Z,1008.66
2023-02-21T03:56:26.128Z,1008.63
2023-02-21T03:57:23.692Z,1008.63
2023-02-21T03:58:22.672Z,1008.69
2023-02-21T03:59:22.740Z,1008.69
2023-02-21T04:00:22.664Z,1008.71
2023-02-21T04:01:22.709Z,1008.74
2023-02-21T04:02:22.598Z,1008.74
2023-02-21T04:03:22.583Z,1008.82
2023-02-21T04:04:22.594Z,1008.80
2023-02-21T04:05:22.619Z,1008.67
2023-02-21T04:06:22.568Z,1008.77
2023-02-21T04:07:22.725Z,1008.66
2023-02-21T04:08:22.599Z,1008.68
2023-02-21T04:09:22.677Z,1008.72
2023-02-21T04:10:22.504Z,1008.60
2023-02-21T04:11:22.481Z,1008.66
2023-02-21T04:12:22.496Z,1008.59
2023-02-21T04:13:22.518Z,1008.57
2023-02-21T04:14:22.439Z,1008.52
2023-02-21T04:15:22.512Z,1008.61
2023-02-21T04:16:22.497Z,1008.58
2023-02-21T04:17:22.469Z,1008.64
2023-02-21T04:18:22.445Z,1008.51
2023-02-21T04:19:23.246Z,1008.65
2023-02-21T04:20:22.444Z,1008.77
2023-02-21T04:21:22.370Z,1008.63
2023-02-21T04:22:22.428Z,1008.72
2023-02-21T04:23:22.375Z,1008.72
2023-02-21T04:24:23.340Z,1008.76
2023-02-21T04:25:22.330Z,1008.68
2023-02-21T04:26:22.317Z,1008.66
2023-02-21T04:27:22.387Z,1008.72
2023-02-21T04:28:22.266Z,1008.68
2023-02-21T04:29:22.271Z,1008.66
2023-02-21T04:30:22.355Z,1008.65
2023-02-21T04:31:22.262Z,1008.59
2023-02-21T04:32:23.003Z,1008.65
2023-02-21T04:33:22.206Z,1008.75
2023-02-21T04:34:22.211Z,1008.65
2023-02-21T04:35:23.252Z,1008.62
2023-02-21T04:36:22.193Z,1008.71
2023-02-21T04:37:22.226Z,1008.69
2023-02-21T04:38:22.196Z,1008.68
2023-02-21T04:39:22.212Z,1008.71
2023-02-21T04:40:22.150Z,1008.65
2023-02-21T04:41:22.116Z,1008.66
2023-02-21T04:42:22.174Z,1008.63
2023-02-21T04:43:22.073Z,1008.66
2023-02-21T04:44:22.071Z,1008.68
2023-02-21T04:45:22.077Z,1008.60
2023-02-21T04:46:22.674Z,1008.68
2023-02-21T04:47:22.058Z,1008.68
2023-02-21T04:48:22.010Z,1008.62
2023-02-21T04:49:22.016Z,1008.74
2023-02-21T04:50:22.085Z,1008.76
2023-02-21T04:51:22.363Z,1008.68
2023-02-21T04:52:21.997Z,1008.72
2023-02-21T04:53:21.959Z,1008.71
2023-02-21T04:54:21.938Z,1008.68
2023-02-21T04:55:21.933Z,1008.62
2023-02-21T04:56:21.955Z,1008.64
2023-02-21T04:57:21.914Z,1008.60
2023-02-21T04:58:21.920Z,1008.71
2023-02-21T04:59:22.024Z,1008.62
2023-02-21T05:00:21.877Z,1008.65
2023-02-21T05:01:21.885Z,1008.65
2023-02-21T05:02:22.719Z,1008.64
2023-02-21T05:03:21.839Z,1008.70
2023-02-21T05:04:21.873Z,1008.56
2023-02-21T05:05:21.816Z,1008.60
2023-02-21T05:06:21.802Z,1008.65
2023-02-21T05:07:21.802Z,1008.61
2023-02-21T05:08:25.927Z,1008.53
2023-02-21T05:09:21.788Z,1008.69
2023-02-21T05:10:21.756Z,1008.60
2023-02-21T05:11:21.931Z,1008.62
2023-02-21T05:12:21.743Z,1008.58
2023-02-21T05:13:21.770Z,1008.68
2023-02-21T05:14:21.761Z,1008.62
2023-02-21T05:15:21.661Z,1008.64
2023-02-21T05:16:21.680Z,1008.79
2023-02-21T05:17:22.807Z,1008.65
2023-02-21T05:18:21.640Z,1008.64
2023-02-21T05:19:21.622Z,1008.67
2023-02-21T05:20:21.603Z,1008.60
2023-02-21T05:21:21.584Z,1008.62
2023-02-21T05:22:22.587Z,1008.69
2023-02-21T05:23:21.578Z,1008.71
2023-02-21T05:24:21.677Z,1008.75
2023-02-21T05:25:22.479Z,1008.72
2023-02-21T05:26:21.659Z,1008.68
2023-02-21T05:27:22.361Z,1008.78
2023-02-21T05:28:21.670Z,1008.76
2023-02-21T05:29:21.592Z,1008.72
2023-02-21T05:30:21.549Z,1008.75
2023-02-21T05:31:22.477Z,1008.80
2023-02-21T05:32:22.159Z,1008.77
2023-02-21T05:33:21.509Z,1008.75
2023-02-21T05:34:21.486Z,1008.77
2023-02-21T05:35:21.443Z,1008.81
2023-02-21T05:36:21.432Z,1008.79
2023-02-21T05:37:22.414Z,1008.90
2023-02-21T05:38:22.330Z,1008.77
2023-02-21T05:39:21.799Z,1008.79
2023-02-21T05:40:22.301Z,1008.80
2023-02-21T05:41:21.365Z,1008.90
2023-02-21T05:42:21.380Z,1008.76
2023-02-21T05:43:22.354Z,1008.81
2023-02-21T05:44:21.802Z,1008.83
2023-02-21T05:45:21.319Z,1008.84
2023-02-21T05:46:21.458Z,1008.79
2023-02-21T05:47:21.299Z,1008.85
2023-02-21T05:48:21.280Z,1008.83
2023-02-21T05:49:22.288Z,1008.84
2023-02-21T05:50:21.304Z,1008.78
2023-02-21T05:51:21.225Z,1008.82
2023-02-21T05:52:22.008Z,1008.83
2023-02-21T05:53:22.131Z,1008.82
2023-02-21T05:54:21.343Z,1008.84
2023-02-21T05:55:21.394Z,1008.88
2023-02-21T05:56:21.205Z,1008.90
2023-02-21T05:57:21.444Z,1008.80
2023-02-21T05:58:21.138Z,1008.91
2023-02-21T05:59:21.119Z,1008.89
2023-02-21T06:00:21.139Z,1008.85
2023-02-21T06:01:21.239Z,1008.95
2023-02-21T06:02:21.116Z,1008.85
2023-02-21T06:03:21.994Z,1008.84
2023-02-21T06:04:21.260Z,1008.88
2023-02-21T06:05:21.056Z,1008.82
2023-02-21T06:06:21.020Z,1008.84
2023-02-21T06:07:21.066Z,1008.81
2023-02-21T06:08:21.999Z,1008.74
2023-02-21T06:09:21.899Z,1008.85
2023-02-21T06:10:21.807Z,1008.81
2023-02-21T06:11:21.057Z,1008.81
2023-02-21T06:12:21.105Z,1008.85
2023-02-21T06:13:20.967Z,1008.89
2023-02-21T06:14:21.080Z,1008.89
2023-02-21T06:15:21.846Z,1008.91
2023-02-21T06:16:21.847Z,1008.92
2023-02-21T06:17:20.903Z,1008.86
2023-02-21T06:18:21.908Z,1008.94
2023-02-21T06:19:20.947Z,1008.95
2023-02-21T06:20:21.864Z,1008.90
2023-02-21T06:21:21.648Z,1008.92
2023-02-21T06:22:21.680Z,1008.98
2023-02-21T06:23:20.867Z,1008.99
2023-02-21T06:24:20.817Z,1008.97
2023-02-21T06:25:20.958Z,1009.04
2023-02-21T06:26:20.762Z,1009.05
2023-02-21T06:27:20.769Z,1009.03
2023-02-21T06:28:20.846Z,1008.98
2023-02-21T06:29:20.806Z,1009.01
2023-02-21T06:30:23.095Z,1009.01
2023-02-21T06:31:21.910Z,1009.02
2023-02-21T06:32:21.422Z,1009.08
2023-02-21T06:33:21.642Z,1009.09
2023-02-21T06:34:20.728Z,1009.05
2023-02-21T06:35:20.654Z,1009.12
2023-02-21T06:36:20.736Z,1009.10
2023-02-21T06:37:20.659Z,1009.08
2023-02-21T06:38:20.662Z,1009.15
2023-02-21T06:39:21.193Z,1009.20
2023-02-21T06:40:21.414Z,1009.11
2023-02-21T06:41:20.624Z,1009.28
2023-02-21T06:42:22.025Z,1009.17
2023-02-21T06:43:21.725Z,1009.22
2023-02-21T06:44:20.758Z,1009.18
2023-02-21T06:45:20.908Z,1009.30
2023-02-21T06:46:20.569Z,1009.26
2023-02-21T06:47:21.332Z,1009.41
2023-02-21T06:48:21.243Z,1009.34
2023-02-21T06:49:20.509Z,1009.35
2023-02-21T06:50:21.564Z,1009.33
2023-02-21T06:51:20.486Z,1009.35
2023-02-21T06:52:20.470Z,1009.37
2023-02-21T06:53:20.495Z,1009.34
2023-02-21T06:54:20.605Z,1009.37
2023-02-21T06:55:20.554Z,1009.34
2023-02-21T06:56:20.985Z,1009.38
2023-02-21T06:57:21.401Z,1009.40
2023-02-21T06:58:20.408Z,1009.38
2023-02-21T06:59:20.360Z,1009.38
2023-02-21T07:00:20.364Z,1009.44
2023-02-21T07:01:21.255Z,1009.49
2023-02-21T07:02:20.374Z,1009.43
2023-02-21T07:03:20.314Z,1009.47
2023-02-21T07:04:20.377Z,1009.49
2023-02-21T07:05:20.324Z,1009.51
2023-02-21T07:06:20.341Z,1009.46
2023-02-21T07:07:20.809Z,1009.47
2023-02-21T07:08:20.334Z,1009.46
2023-02-21T07:09:20.481Z,1009.56
2023-02-21T07:10:20.362Z,1009.54
2023-02-21T07:11:21.077Z,1009.47
2023-02-21T07:12:20.346Z,1009.62
2023-02-21T07:13:22.424Z,1009.57
2023-02-21T07:14:20.174Z,1009.68
2023-02-21T07:15:20.196Z,1009.60
2023-02-21T07:16:20.153Z,1009.58
2023-02-21T07:17:21.151Z,1009.58
2023-02-21T07:18:20.104Z,1009.64
2023-02-21T07:19:23.761Z,1009.61
2023-02-21T07:20:20.106Z,1009.68
2023-02-21T07:21:20.061Z,1009.67
2023-02-21T07:22:20.126Z,1009.62
2023-02-21T07:23:20.150Z,1009.65
2023-02-21T07:24:20.222Z,1009.68
2023-02-21T07:25:21.261Z,1009.77
2023-02-21T07:26:20.329Z,1009.69
2023-02-21T07:27:20.118Z,1009.72
2023-02-21T07:28:19.970Z,1009.76
2023-02-21T07:29:20.041Z,1009.69
2023-02-21T07:30:19.960Z,1009.72
2023-02-21T07:31:21.369Z,1009.70
2023-02-21T07:32:21.436Z,1009.66
2023-02-21T07:33:21.008Z,1009.72
2023-02-21T07:34:20.873Z,1009.76
2023-02-21T07:35:20.029Z,1009.70
2023-02-21T07:36:20.044Z,1009.70
2023-02-21T07:37:20.043Z,1009.70
2023-02-21T07:38:21.302Z,1009.75
2023-02-21T07:39:20.956Z,1009.74
2023-02-21T07:40:19.868Z,1009.77
2023-02-21T07:41:20.761Z,1009.74
2023-02-21T07:42:19.977Z,1009.77
2023-02-21T07:43:19.956Z,1009.78
2023-02-21T07:44:20.980Z,1009.78
2023-02-21T07:45:19.888Z,1009.78
2023-02-21T07:46:19.937Z,1009.83
2023-02-21T07:47:20.689Z,1009.75
2023-02-21T07:48:20.610Z,1009.80
2023-02-21T07:49:19.767Z,1009.84
2023-02-21T07:50:19.882Z,1009.94
2023-02-21T07:51:19.688Z,1009.82
2023-02-21T07:52:19.931Z,1009.81
2023-02-21T07:53:19.863Z,1009.88
2023-02-21T07:54:19.693Z,1009.84
2023-02-21T07:55:19.695Z,1009.91
2023-02-21T07:56:19.693Z,1009.94
2023-02-21T07:57:19.690Z,1009.89
2023-02-21T07:58:21.516Z,1009.93
2023-02-21T07:59:19.716Z,1009.93
2023-02-21T08:00:19.968Z,1009.93
2023-02-21T08:01:20.107Z,1009.88
2023-02-21T08:02:19.705Z,1009.91
2023-02-21T08:03:20.975Z,1009.93
2023-02-21T08:04:19.560Z,1009.98
2023-02-21T08:05:19.695Z,1009.95
2023-02-21T08:06:19.608Z,1009.93
2023-02-21T08:07:19.733Z,1009.90
2023-02-21T08:08:19.894Z,1009.97
2023-02-21T08:09:19.540Z,1009.96
2023-02-21T08:10:19.468Z,1010.07
2023-02-21T08:11:19.654Z,1009.96
2023-02-21T08:12:19.601Z,1009.99
2023-02-21T08:13:19.482Z,1009.98
2023-02-21T08:14:20.655Z,1010.02
2023-02-21T08:15:19.390Z,1009.95
2023-02-21T08:16:19.444Z,1010.03
2023-02-21T08:17:19.550Z,1010.03
2023-02-21T08:18:19.341Z,1010.06
2023-02-21T08:19:20.177Z,1010.05
2023-02-21T08:20:20.583Z,1010.11
2023-02-21T08:21:19.372Z,1010.03
2023-02-21T08:22:19.308Z,1010.07
2023-02-21T08:23:19.300Z,1010.05
2023-02-21T08:24:19.878Z,1010.10
2023-02-21T08:25:19.319Z,1010.08
2023-02-21T08:26:19.640Z,1010.09
2023-02-21T08:27:19.283Z,1010.12
2023-02-21T08:28:20.198Z,1010.07
2023-02-21T08:29:19.444Z,1010.11
2023-02-21T08:30:19.913Z,1010.06
2023-02-21T08:31:20.062Z,1010.08
2023-02-21T08:32:19.996Z,1010.04
2023-02-21T08:33:19.202Z,1010.04
2023-02-21T08:34:19.147Z,1010.03
2023-02-21T08:35:19.179Z,1010.05
2023-02-21T08:36:19.293Z,1010.17
2023-02-21T08:37:19.187Z,1010.07
2023-02-21T08:38:19.280Z,1010.05
2023-02-21T08:39:19.097Z,1010.11
2023-02-21T08:40:20.520Z,1010.07
2023-02-21T08:41:19.073Z,1010.07
2023-02-21T08:42:19.134Z,1010.09
2023-02-21T08:43:19.626Z,1010.10
2023-02-21T08:44:19.040Z,1010.10
2023-02-21T08:45:19.099Z,1010.06
2023-02-21T08:46:19.006Z,1010.11
2023-02-21T08:47:19.807Z,1010.10
2023-02-21T08:48:19.956Z,1010.13
2023-02-21T08:49:19.029Z,1010.10
2023-02-21T08:50:18.951Z,1009.96
2023-02-21T08:51:18.948Z,1010.12
2023-02-21T08:52:19.160Z,1010.11
2023-02-21T08:53:19.012Z,1010.09
2023-02-21T08:54:18.927Z,1010.11
2023-02-21T08:55:18.980Z,1010.12
2023-02-21T08:56:19.759Z,1010.17
2023-02-21T08:57:18.876Z,1010.25
2023-02-21T08:58:18.927Z,1010.20
2023-02-21T08:59:19.925Z,1010.18
2023-02-21T09:00:18.804Z,1010.20
2023-02-21T09:01:19.463Z,1010.22
2023-02-21T09:02:18.925Z,1010.24
2023-02-21T09:03:18.773Z,1010.28
2023-02-21T09:04:19.952Z,1010.26
2023-02-21T09:05:19.744Z,1010.28
2023-02-21T09:06:18.857Z,1010.26
2023-02-21T09:07:18.816Z,1010.27
2023-02-21T09:08:18.693Z,1010.28
2023-02-21T09:09:18.841Z,1010.27
2023-02-21T09:10:18.686Z,1010.20
2023-02-21T09:11:19.786Z,1010.27
2023-02-21T09:12:19.696Z,1010.19
2023-02-21T09:13:18.688Z,1010.21
2023-02-21T09:14:18.745Z,1010.25
2023-02-21T09:15:18.683Z,1010.22
2023-02-21T09:16:18.656Z,1010.25
2023-02-21T09:17:18.633Z,1010.23
2023-02-21T09:18:19.056Z,1010.25
2023-02-21T09:19:18.610Z,1010.26
2023-02-21T09:20:19.443Z,1010.26
2023-02-21T09:21:19.344Z,1010.26
2023-02-21T09:22:18.736Z,1010.28
2023-02-21T09:23:18.554Z,1010.24
2023-02-21T09:24:18.507Z,1010.29
2023-02-21T09:25:19.468Z,1010.24
2023-02-21T09:26:18.502Z,1010.31
2023-02-21T09:27:18.503Z,1010.29
2023-02-21T09:28:19.692Z,1010.24
2023-02-21T09:29:18.455Z,1010.21
2023-02-21T09:30:19.576Z,1010.22
2023-02-21T09:31:26.436Z,1010.26
2023-02-21T09:32:18.441Z,1010.20
2023-02-21T09:33:19.231Z,1010.22
2023-02-21T09:34:18.479Z,1010.23
2023-02-21T09:35:18.426Z,1010.25
2023-02-21T09:36:19.446Z,1010.30
2023-02-21T09:37:18.394Z,1010.27
2023-02-21T09:38:19.246Z,1010.29
2023-02-21T09:39:19.206Z,1010.27
2023-02-21T09:40:18.345Z,1010.26
2023-02-21T09:41:18.486Z,1010.28
2023-02-21T09:42:18.263Z,1010.29
2023-02-21T09:43:19.689Z,1010.27
2023-02-21T09:44:18.386Z,1010.31
2023-02-21T09:45:19.084Z,1010.28
2023-02-21T09:46:18.213Z,1010.27
2023-02-21T09:47:18.332Z,1010.23
2023-02-21T09:48:18.241Z,1010.28
2023-02-21T09:49:18.178Z,1010.25
2023-02-21T09:50:19.107Z,1010.23
2023-02-21T09:51:18.640Z,1010.21
2023-02-21T09:52:18.936Z,1010.24
2023-02-21T09:53:18.149Z,1010.23
2023-02-21T09:54:18.098Z,1010.25
2023-02-21T09:55:18.095Z,1010.22
2023-02-21T09:56:19.059Z,1010.25
2023-02-21T09:57:18.338Z,1010.19
2023-02-21T09:58:18.081Z,1010.22
2023-02-21T09:59:18.052Z,1010.18
2023-02-21T10:00:19.184Z,1010.21
2023-02-21T10:01:18.052Z,1010.29
2023-02-21T10:02:19.002Z,1010.29
2023-02-21T10:03:18.894Z,1010.29
2023-02-21T10:04:18.694Z,1010.31
2023-02-21T10:05:17.953Z,1010.28
2023-02-21T10:06:18.344Z,1010.28
2023-02-21T10:07:17.960Z,1010.27
2023-02-21T10:08:18.022Z,1010.33
2023-02-21T10:09:18.026Z,1010.42
2023-02-21T10:10:17.885Z,1010.24
2023-02-21T10:11:17.945Z,1010.48
2023-02-21T10:12:17.965Z,1010.38
2023-02-21T10:13:17.858Z,1010.40
2023-02-21T10:14:18.896Z,1010.38
2023-02-21T10:15:17.869Z,1010.41
2023-02-21T10:16:17.978Z,1010.41
2023-02-21T10:17:17.955Z,1010.40
2023-02-21T10:18:19.593Z,1010.41
2023-02-21T10:19:17.776Z,1010.44
2023-02-21T10:20:17.760Z,1010.43
2023-02-21T10:21:17.913Z,1010.46
2023-02-21T10:22:17.781Z,1010.46
2023-02-21T10:23:18.036Z,1010.44
2023-02-21T10:24:17.758Z,1010.50
2023-02-21T10:25:17.768Z,1010.52
2023-02-21T10:26:18.738Z,1010.51
2023-02-21T10:27:17.699Z,1010.46
2023-02-21T10:28:18.727Z,1010.56
2023-02-21T10:29:18.083Z,1010.53
2023-02-21T10:30:18.943Z,1010.46
2023-02-21T10:31:17.912Z,1010.56
2023-02-21T10:32:17.740Z,1010.55
2023-02-21T10:33:17.641Z,1010.61
2023-02-21T10:34:18.476Z,1010.49
2023-02-21T10:35:17.676Z,1010.52
2023-02-21T10:36:18.790Z,1010.51
2023-02-21T10:37:17.711Z,1010.56
2023-02-21T10:38:17.549Z,1010.64
2023-02-21T10:39:18.498Z,1010.55
2023-02-21T10:40:17.639Z,1010.61
2023-02-21T10:41:18.324Z,1010.59
2023-02-21T10:42:17.466Z,1010.61
2023-02-21T10:43:18.638Z,1010.60
2023-02-21T10:44:18.547Z,1010.54
2023-02-21T10:45:17.732Z,1010.63
2023-02-21T10:46:17.458Z,1010.61
2023-02-21T10:47:18.250Z,1010.60
2023-02-21T10:48:17.391Z,1010.62
2023-02-21T10:49:17.392Z,1010.58
2023-02-21T10:50:17.382Z,1010.63
2023-02-21T10:51:17.958Z,1010.62
2023-02-21T10:52:17.661Z,1010.63
2023-02-21T10:53:17.547Z,1010.67
2023-02-21T10:54:17.710Z,1010.70
2023-02-21T10:55:31.397Z,1010.67
2023-02-21T10:56:18.334Z,1010.66
2023-02-21T10:57:17.400Z,1010.66
2023-02-21T10:58:17.305Z,1010.75
2023-02-21T10:59:18.121Z,1010.70
2023-02-21T11:00:17.537Z,1010.68
2023-02-21T11:01:18.774Z,1010.68
2023-02-21T11:02:17.266Z,1010.66
2023-02-21T11:03:17.207Z,1010.81
2023-02-21T11:04:18.208Z,1010.74
2023-02-21T11:05:18.064Z,1010.64
2023-02-21T11:06:17.163Z,1010.63
2023-02-21T11:07:18.047Z,1010.72
2023-02-21T11:08:18.286Z,1010.71
2023-02-21T11:09:17.427Z,1010.74
2023-02-21T11:10:17.112Z,1010.69
2023-02-21T11:11:17.182Z,1010.72
2023-02-21T11:12:17.091Z,1010.66
2023-02-21T11:13:18.318Z,1010.74
2023-02-21T11:14:17.544Z,1010.73
2023-02-21T11:15:17.104Z,1010.73
2023-02-21T11:16:17.447Z,1010.73
2023-02-21T11:17:17.138Z,1010.80
2023-02-21T11:18:17.839Z,1010.68
2023-02-21T11:19:17.025Z,1010.70
2023-02-21T11:20:18.196Z,1010.69
2023-02-21T11:21:17.349Z,1010.67
2023-02-21T11:22:17.050Z,1010.78
2023-02-21T11:23:17.507Z,1010.65
2023-02-21T11:24:17.775Z,1010.72
2023-02-21T11:25:17.096Z,1010.70
2023-02-21T11:26:16.940Z,1010.68
2023-02-21T11:27:16.867Z,1010.69
2023-02-21T11:28:16.866Z,1010.68
2023-02-21T11:29:17.187Z,1010.65
2023-02-21T11:30:16.890Z,1010.60
2023-02-21T11:31:17.275Z,1010.61
2023-02-21T11:32:17.126Z,1010.66
2023-02-21T11:33:16.880Z,1010.68
2023-02-21T11:34:16.824Z,1010.68
2023-02-21T11:35:16.773Z,1010.65
2023-02-21T11:36:16.803Z,1010.63
2023-02-21T11:37:16.747Z,1010.70
2023-02-21T11:38:16.712Z,1010.67
2023-02-21T11:39:17.879Z,1010.61
2023-02-21T11:40:16.869Z,1010.64
2023-02-21T11:41:17.687Z,1010.60
2023-02-21T11:42:16.877Z,1010.63
2023-02-21T11:43:16.670Z,1010.66
2023-02-21T11:44:17.908Z,1010.62
2023-02-21T11:45:16.696Z,1010.63
2023-02-21T11:46:16.686Z,1010.59
2023-02-21T11:47:16.740Z,1010.66
2023-02-21T11:48:16.656Z,1010.70
2023-02-21T11:49:16.712Z,1010.68
2023-02-21T11:50:16.618Z,1010.73
2023-02-21T11:51:16.849Z,1010.67
2023-02-21T11:52:16.589Z,1010.74
2023-02-21T11:53:16.580Z,1010.70
2023-02-21T11:54:16.699Z,1010.81
2023-02-21T11:55:16.544Z,1010.70
2023-02-21T11:56:17.043Z,1010.69
2023-02-21T11:57:16.644Z,1010.78
2023-02-21T11:58:16.739Z,1010.71
2023-02-21T11:59:16.438Z,1010.80
2023-02-21T12:00:16.518Z,1010.73
2023-02-21T12:01:16.646Z,1010.81
2023-02-21T12:02:16.709Z,1010.83
2023-02-21T12:03:16.469Z,1010.73
2023-02-21T12:04:16.510Z,1010.71
2023-02-21T12:05:16.403Z,1010.68